aviador You're here:

WSSS Decoded Metar

SINGAPORE in SINGAPORE
Report Time2017-10-24 02:00:00
UTC Time2017-10-24 02:22:28
Flight Rules vfr VFR
WindVRB at 02 kt
Visibility8000 m
Phenomena:N/A
Clouds:Few 016 Hf
Scattered TCU 018 Hf
Broken 300 Hf
Expected CloudBase > 2,000 ft AGL from Temp-Dew spread
Ceiling30,000 ft
Temp30°C (ISA +15)
Dew Point25°C (75% RH)
Heat Index36.3°C
QNH1013 hPa
Density Alt2,198 ft
Elevation52 ft
Report Wrong Elevation
Raw Report
WSSS 240200Z VRB02KT 8000 FEW016 SCT018TCU BKN300 30/25 Q1013
TEMPO FM0330 4000 SHRA=

Extra information for WSSS:More info

Metar Taf Metar & Taf Last 4 Metars F.Rules Stats Wind Profile Meteogram Temp Stats Airport Information Weather charts Add Link Nearby VenuesMetar ALERT Operation Metar Decoded Social comments